Time;durP1;ratioP1;P1;durP2;ratioP2;P2;SDS_P1;SDS_P2;PMS_P1;PMS_P2;Temp;Humidity;BMP_temperature;BMP_pressure;BME280_temperature;BME280_humidity;BME280_pressure;Samples;Min_cycle;Max_cycle;Signal;HPM_P1;HPM_P2
2022/03/12 00:00:21;;;;;;;15.85;8.68;;;;;;;6.05;64.68;98408.81;5004452;28;20029;-67
2022/03/12 00:02:47;;;;;;;19.75;8.52;;;;;;;6.01;66.07;98407.09;5004425;28;20093;-67
2022/03/12 00:05:13;;;;;;;14.98;8.43;;;;;;;5.74;67.79;98407.19;5004342;28;20022;-67
2022/03/12 00:07:42;;;;;;;18.42;8.35;;;;;;;5.76;67.06;98415.91;5004404;28;20088;-67
2022/03/12 00:10:12;;;;;;;19.77;9.15;;;;;;;5.62;68.67;98409.84;5004514;28;20328;-67
2022/03/12 00:12:38;;;;;;;18.77;8.65;;;;;;;5.57;69.36;98420.28;5004632;28;20369;-67
2022/03/12 00:15:09;;;;;;;15.32;8.60;;;;;;;5.64;68.63;98416.81;5004224;28;20096;-67
2022/03/12 00:17:43;;;;;;;19.20;8.40;;;;;;;5.76;68.25;98423.72;5004493;28;20018;-67
2022/03/12 00:20:12;;;;;;;16.48;8.13;;;;;;;5.75;67.72;98425.47;5004327;28;20022;-67
2022/03/12 00:22:46;;;;;;;17.10;7.20;;;;;;;5.75;66.95;98429.81;5004256;28;20030;-67
2022/03/12 00:25:18;;;;;;;21.90;10.18;;;;;;;5.76;68.21;98431.56;5004444;28;20022;-67
2022/03/12 00:27:45;;;;;;;25.38;11.15;;;;;;;5.77;68.89;98438.50;5006243;28;20022;-67
2022/03/12 00:30:15;;;;;;;32.13;10.63;;;;;;;5.75;69.18;98435.91;5008136;28;20237;-67
2022/03/12 00:32:41;;;;;;;24.88;11.05;;;;;;;5.80;68.50;98438.50;5008110;28;20129;-67
2022/03/12 00:35:10;;;;;;;29.73;14.48;;;;;;;5.81;68.50;98440.22;5008312;28;20257;-67
2022/03/12 00:37:36;;;;;;;31.83;15.02;;;;;;;5.91;67.32;98447.19;5007949;28;20027;-67
2022/03/12 00:40:04;;;;;;;36.67;13.50;;;;;;;5.97;67.58;98442.81;5007674;28;20281;-67
2022/03/12 00:42:30;;;;;;;33.03;15.35;;;;;;;6.07;67.14;98443.63;5007460;28;20037;-67
2022/03/12 00:44:55;;;;;;;34.00;15.13;;;;;;;6.02;67.94;98445.41;5007868;28;20325;-67
2022/03/12 00:47:21;;;;;;;37.97;14.52;;;;;;;6.02;68.48;98445.41;5007396;28;20056;-67
2022/03/12 00:49:48;;;;;;;26.40;12.32;;;;;;;6.07;67.79;98448.84;5007598;28;20030;-67
2022/03/12 00:52:13;;;;;;;37.72;17.38;;;;;;;6.02;68.78;98445.41;5007744;28;20309;-67
2022/03/12 00:54:39;;;;;;;40.58;22.77;;;;;;;5.91;69.87;98452.41;5007435;28;20049;-67
2022/03/12 00:57:04;;;;;;;38.00;19.00;;;;;;;5.82;70.52;98460.31;5007311;28;20145;-67
2022/03/12 00:59:30;;;;;;;35.95;18.15;;;;;;;5.81;70.14;98450.69;5007243;28;20028;-67
2022/03/12 01:01:55;;;;;;;38.60;15.85;;;;;;;5.89;69.14;98460.25;5007347;28;20022;-67
2022/03/12 01:04:20;;;;;;;34.95;15.00;;;;;;;5.86;68.92;98454.19;5007467;28;20239;-67
2022/03/12 01:06:46;;;;;;;26.52;14.38;;;;;;;5.98;69.56;98467.19;5007153;28;20053;-67
2022/03/12 01:09:13;;;;;;;37.30;18.20;;;;;;;5.91;70.38;98460.25;5007298;28;20053;-67
2022/03/12 01:11:40;;;;;;;54.38;21.88;;;;;;;5.85;71.06;98468.09;5007104;28;20081;-67
2022/03/12 01:14:06;;;;;;;40.50;19.58;;;;;;;5.83;71.30;98464.63;5006862;28;20262;-67
2022/03/12 01:16:35;;;;;;;41.80;19.52;;;;;;;5.91;71.33;98470.69;5007083;28;20213;-67
2022/03/12 01:19:00;;;;;;;48.78;20.85;;;;;;;5.85;71.42;98462.88;5007052;28;20021;-67
2022/03/12 01:21:26;;;;;;;48.45;20.35;;;;;;;5.79;71.37;98468.13;5006847;28;20405;-67
2022/03/12 01:23:52;;;;;;;46.20;20.13;;;;;;;5.85;71.29;98468.09;5006866;28;20086;-66
2022/03/12 01:26:19;;;;;;;46.20;19.75;;;;;;;5.88;71.60;98468.09;5006777;28;20322;-66
2022/03/12 01:28:46;;;;;;;46.75;21.48;;;;;;;5.76;71.71;98468.97;5006570;28;20030;-66
2022/03/12 01:31:12;;;;;;;32.95;16.75;;;;;;;5.83;71.66;98462.03;4990771;28;20026;-66
2022/03/12 01:33:38;;;;;;;48.30;18.67;;;;;;;5.80;71.88;98462.00;4987623;28;20042;-66
2022/03/12 01:36:04;;;;;;;47.35;18.83;;;;;;;5.84;71.53;98467.25;4993484;28;20030;-66
2022/03/12 01:38:48;;;;;;;35.20;16.63;;;;;;;5.85;72.13;98460.25;5005598;28;20105;-66
2022/03/12 01:41:18;;;;;;;41.22;17.05;;;;;;;5.84;72.08;98453.31;5006735;28;20086;-66
2022/03/12 01:43:44;;;;;;;40.45;17.70;;;;;;;5.81;71.60;98463.72;5006808;28;20064;-66
2022/03/12 01:46:11;;;;;;;33.95;17.65;;;;;;;5.80;72.35;98464.63;5006513;28;20140;-66
2022/03/12 01:48:44;;;;;;;37.45;15.52;;;;;;;5.92;71.63;98462.84;5006980;28;20026;-66
2022/03/12 01:51:09;;;;;;;38.72;16.70;;;;;;;5.80;71.91;98464.63;5006718;28;20033;-66
2022/03/12 01:53:35;;;;;;;35.30;15.95;;;;;;;5.80;71.90;98469.84;5006709;28;20050;-66
2022/03/12 01:56:00;;;;;;;31.08;15.90;;;;;;;5.74;72.07;98472.47;5006631;28;20015;-66
2022/03/12 01:58:26;;;;;;;40.42;16.05;;;;;;;5.74;71.80;98470.72;5006815;28;20267;-66
2022/03/12 02:00:53;;;;;;;29.27;14.07;;;;;;;5.81;71.32;98476.78;5006756;28;20022;-66
2022/03/12 02:03:28;;;;;;;28.80;11.60;;;;;;;5.86;71.71;98472.47;5006691;28;20026;-66
2022/03/12 02:05:54;;;;;;;23.15;9.90;;;;;;;5.93;71.75;98461.13;5006632;28;20089;-66
2022/03/12 02:08:20;;;;;;;22.15;11.32;;;;;;;5.96;72.22;98461.09;5006355;28;20320;-66
2022/03/12 02:10:49;;;;;;;24.55;12.00;;;;;;;5.90;72.51;98461.13;5006279;28;20026;-66
2022/03/12 02:13:16;;;;;;;33.10;14.38;;;;;;;5.79;73.10;98462.88;5006151;28;20018;-66
2022/03/12 02:15:42;;;;;;;35.65;15.27;;;;;;;5.80;73.41;98469.84;5005791;28;20042;-66
2022/03/12 02:18:08;;;;;;;25.00;12.77;;;;;;;5.74;74.30;98465.50;5005817;28;20022;-66
2022/03/12 02:20:34;;;;;;;28.95;14.00;;;;;;;5.72;75.20;98475.06;4997766;28;20026;-66
2022/03/12 02:23:00;;;;;;;30.38;13.23;;;;;;;5.79;75.41;98468.13;5006062;28;20033;-66
2022/03/12 02:25:33;;;;;;;24.65;12.82;;;;;;;5.80;75.38;98469.84;5005676;28;20325;-66
2022/03/12 02:28:02;;;;;;;30.02;13.48;;;;;;;5.82;76.98;98473.34;5006009;28;20073;-66
2022/03/12 02:30:37;;;;;;;27.95;12.60;;;;;;;5.90;77.79;98471.56;5005684;28;20022;-66
2022/03/12 02:33:03;;;;;;;31.85;15.30;;;;;;;5.85;75.98;98474.19;5005588;28;20022;-66
2022/03/12 02:35:34;;;;;;;33.67;15.13;;;;;;;5.73;76.03;98473.34;5005792;28;20030;-66
2022/03/12 02:38:01;;;;;;;32.50;16.63;;;;;;;5.67;76.65;98478.59;5006040;28;20093;-66
2022/03/12 02:40:27;;;;;;;30.38;15.13;;;;;;;5.70;77.09;98478.56;5005694;28;20029;-66
2022/03/12 02:42:56;;;;;;;35.88;15.07;;;;;;;5.66;76.30;98472.47;5005666;28;20026;-66
2022/03/12 02:45:23;;;;;;;32.20;13.95;;;;;;;5.72;77.89;98476.81;5005415;28;20026;-66
2022/03/12 02:47:50;;;;;;;38.90;17.40;;;;;;;5.79;77.78;98478.56;5005581;28;20022;-66
2022/03/12 02:50:17;;;;;;;48.40;20.35;;;;;;;5.80;76.48;98480.28;5004686;28;20222;-66
2022/03/12 02:52:44;;;;;;;48.67;19.77;;;;;;;5.81;78.51;98479.41;5005523;28;20022;-66
2022/03/12 02:55:17;;;;;;;41.30;18.20;;;;;;;5.87;79.54;98476.81;5005372;28;20023;-66
2022/03/12 02:57:48;;;;;;;37.20;16.50;;;;;;;5.88;80.18;98476.81;5005428;28;20038;-66
2022/03/12 03:00:16;;;;;;;41.28;15.75;;;;;;;5.82;80.65;98483.81;5005627;28;20022;-66
2022/03/12 03:02:52;;;;;;;40.88;18.35;;;;;;;5.75;80.92;98487.25;5005561;28;20314;-66
2022/03/12 03:05:19;;;;;;;34.55;16.08;;;;;;;5.79;82.15;98489.00;5005438;28;20026;-66
2022/03/12 03:07:45;;;;;;;40.95;17.50;;;;;;;5.80;80.99;98493.34;5005185;28;20322;-66
2022/03/12 03:10:30;;;;;;;43.80;19.13;;;;;;;5.75;79.30;98502.91;5005049;28;20037;-66
2022/03/12 03:12:58;;;;;;;42.60;17.05;;;;;;;5.80;81.57;98501.19;5005415;28;20028;-66
2022/03/12 03:15:25;;;;;;;41.75;19.10;;;;;;;5.77;79.58;98498.56;5004990;28;20276;-67
2022/03/12 03:17:51;;;;;;;42.75;16.73;;;;;;;5.70;79.89;98507.28;5005027;28;20085;-67
2022/03/12 03:20:17;;;;;;;30.30;14.20;;;;;;;5.73;80.02;98504.69;5005044;28;20030;-67
2022/03/12 03:22:42;;;;;;;30.65;13.32;;;;;;;5.72;81.56;98502.91;5005224;28;20022;-67
2022/03/12 03:25:08;;;;;;;17.15;8.40;;;;;;;5.86;83.80;98494.22;5004943;28;20042;-67
2022/03/12 03:27:34;;;;;;;28.88;13.63;;;;;;;5.74;83.46;98495.97;5004826;28;20022;-67
2022/03/12 03:29:59;;;;;;;26.52;11.93;;;;;;;5.75;84.02;98487.25;5004899;28;20022;-67
2022/03/12 03:32:25;;;;;;;35.05;14.55;;;;;;;5.81;84.43;98492.47;5004857;28;20018;-67
2022/03/12 03:34:50;;;;;;;29.70;15.32;;;;;;;5.73;85.04;98494.25;5004749;28;20022;-67
2022/03/12 03:37:16;;;;;;;30.40;13.95;;;;;;;5.70;86.57;98494.25;5004731;28;20018;-67
2022/03/12 03:39:41;;;;;;;32.58;14.77;;;;;;;5.61;88.57;98497.75;5004540;28;20026;-67
2022/03/12 03:42:07;;;;;;;35.95;15.73;;;;;;;5.69;89.05;98492.47;5004475;28;20022;-67
2022/03/12 03:44:32;;;;;;;32.88;14.82;;;;;;;5.67;89.56;98495.09;5004294;28;20387;-67
2022/03/12 03:46:58;;;;;;;34.58;14.75;;;;;;;5.68;89.81;98509.03;5004457;28;20214;-67
2022/03/12 03:49:24;;;;;;;24.10;11.38;;;;;;;5.76;90.09;98505.53;5004638;28;20033;-67
2022/03/12 03:51:51;;;;;;;28.65;13.15;;;;;;;5.78;89.14;98513.34;5004706;28;20081;-67
2022/03/12 03:54:16;;;;;;;23.00;12.32;;;;;;;5.77;90.19;98516.84;5004697;28;20026;-67
2022/03/12 03:56:43;;;;;;;32.55;14.18;;;;;;;5.66;89.77;98516.88;5004424;28;20324;-67
2022/03/12 03:59:09;;;;;;;36.67;15.00;;;;;;;5.56;90.05;98516.88;5004504;28;20221;-67
2022/03/12 04:01:39;;;;;;;35.65;14.25;;;;;;;5.47;89.86;98520.38;5004230;28;20256;-67
2022/03/12 04:04:05;;;;;;;30.38;14.55;;;;;;;5.64;89.01;98520.34;5004959;28;20018;-67
2022/03/12 04:06:31;;;;;;;28.88;13.88;;;;;;;5.52;88.91;98517.75;5004393;28;20341;-67
2022/03/12 04:08:56;;;;;;;28.70;12.30;;;;;;;5.53;89.20;98524.72;5004341;28;20042;-67
2022/03/12 04:11:24;;;;;;;32.15;13.50;;;;;;;5.55;89.03;98516.03;5004255;28;20073;-67
2022/03/12 04:13:52;;;;;;;30.15;14.27;;;;;;;5.60;88.92;98519.47;5004181;28;20217;-67
2022/03/12 04:16:18;;;;;;;34.50;13.50;;;;;;;5.48;89.06;98519.53;5004352;28;20081;-67
2022/03/12 04:18:46;;;;;;;25.63;11.40;;;;;;;5.59;89.64;98527.31;5003982;28;20028;-67
2022/03/12 04:21:13;;;;;;;27.38;10.60;;;;;;;5.61;90.10;98525.59;5004295;28;20046;-67
2022/03/12 04:23:43;;;;;;;24.33;10.18;;;;;;;5.65;89.71;98516.88;5004309;28;20030;-67
2022/03/12 04:26:12;;;;;;;28.85;10.93;;;;;;;5.65;89.51;98519.47;5003849;28;20357;-67
2022/03/12 04:28:38;;;;;;;27.23;13.35;;;;;;;5.67;89.85;98520.34;5004041;28;20025;-67
2022/03/12 04:31:06;;;;;;;22.25;11.65;;;;;;;5.66;90.19;98518.63;5004212;28;20026;-67
2022/03/12 04:33:32;;;;;;;24.05;11.13;;;;;;;5.62;90.86;98524.72;5004205;28;20276;-67
2022/03/12 04:35:59;;;;;;;32.28;12.02;;;;;;;5.59;91.82;98522.97;5003765;28;20206;-67
2022/03/12 04:38:25;;;;;;;26.58;13.57;;;;;;;5.68;92.21;98527.31;5003861;28;20022;-67
2022/03/12 04:40:53;;;;;;;29.65;12.57;;;;;;;5.65;92.57;98532.53;5003842;28;20053;-67
2022/03/12 04:43:19;;;;;;;32.10;14.55;;;;;;;5.64;91.70;98530.81;5003971;28;20195;-67
2022/03/12 04:45:46;;;;;;;29.60;13.10;;;;;;;5.67;91.46;98531.66;5003787;28;20138;-67
2022/03/12 04:48:17;;;;;;;31.88;13.40;;;;;;;5.70;91.94;98530.78;5003675;28;20222;-67
2022/03/12 04:50:42;;;;;;;32.08;14.23;;;;;;;5.64;92.55;98530.81;5004038;28;20014;-67
2022/03/12 04:53:09;;;;;;;34.20;12.85;;;;;;;5.72;92.97;98534.25;5003777;28;20029;-67
2022/03/12 04:55:36;;;;;;;29.20;14.38;;;;;;;5.76;92.10;98538.63;5003607;28;20064;-67
2022/03/12 04:58:03;;;;;;;40.33;14.98;;;;;;;5.67;91.47;98543.84;5003891;28;20023;-67
2022/03/12 05:00:29;;;;;;;37.40;16.08;;;;;;;5.63;91.93;98545.59;5003612;28;20121;-67
2022/03/12 05:03:03;;;;;;;37.03;14.27;;;;;;;5.68;92.60;98546.47;5003734;28;20023;-67
2022/03/12 05:05:29;;;;;;;38.50;15.57;;;;;;;5.67;92.69;98546.47;5003509;28;20310;-67
2022/03/12 05:07:58;;;;;;;32.70;14.25;;;;;;;5.74;92.62;98549.06;5003313;28;20064;-67
2022/03/12 05:10:27;;;;;;;32.80;13.70;;;;;;;5.71;92.08;98542.97;5003152;28;20033;-67
2022/03/12 05:12:58;;;;;;;35.63;14.60;;;;;;;5.79;92.56;98556.91;5002926;28;20102;-67
2022/03/12 05:15:24;;;;;;;32.90;12.57;;;;;;;5.79;92.17;98562.97;5007001;28;20062;-67
2022/03/12 05:17:51;;;;;;;38.28;14.23;;;;;;;5.84;92.11;98560.38;5006906;28;20089;-67
2022/03/12 05:20:23;;;;;;;37.53;15.13;;;;;;;5.82;91.78;98557.78;5007015;28;20030;-67
2022/03/12 05:22:50;;;;;;;38.20;13.40;;;;;;;5.80;91.62;98558.63;5006873;28;20050;-67
2022/03/12 05:25:18;;;;;;;43.25;17.90;;;;;;;5.79;91.54;98556.91;5006637;28;20026;-67
2022/03/12 05:27:48;;;;;;;39.22;16.67;;;;;;;5.81;91.81;98560.34;5007029;28;20061;-67
2022/03/12 05:30:13;;;;;;;49.35;18.20;;;;;;;5.81;91.29;98560.34;5006768;28;20033;-67
2022/03/12 05:32:39;;;;;;;47.50;17.92;;;;;;;5.79;91.88;98556.91;5006797;28;20198;-67
2022/03/12 05:35:06;;;;;;;42.47;18.55;;;;;;;5.80;90.68;98564.72;5006794;28;20026;-67
2022/03/12 05:37:32;;;;;;;45.90;16.42;;;;;;;5.66;91.09;98565.63;5006899;28;20018;-67
2022/03/12 05:39:58;;;;;;;36.65;16.25;;;;;;;5.68;91.53;98574.31;5006704;28;20026;-67
2022/03/12 05:42:23;;;;;;;38.08;17.13;;;;;;;5.65;91.23;98574.31;5006499;28;20025;-67
2022/03/12 05:44:54;;;;;;;40.63;16.85;;;;;;;5.67;91.16;98573.41;5006809;28;20246;-67
2022/03/12 05:47:20;;;;;;;44.35;18.08;;;;;;;5.62;90.96;98571.69;5006694;28;20053;-67
2022/03/12 05:49:46;;;;;;;48.45;17.80;;;;;;;5.75;90.72;98576.03;5006977;28;20226;-67
2022/03/12 05:52:12;;;;;;;53.78;17.75;;;;;;;5.78;90.45;98579.53;5006648;28;20034;-67
2022/03/12 05:54:38;;;;;;;44.58;18.40;;;;;;;5.82;91.13;98585.66;5006670;28;20029;-67
2022/03/12 05:57:04;;;;;;;47.05;17.00;;;;;;;5.85;90.79;98583.00;5006837;28;20026;-67
2022/03/12 05:59:29;;;;;;;42.78;17.98;;;;;;;5.84;91.86;98581.28;5006820;28;20034;-67
2022/03/12 06:01:55;;;;;;;41.90;17.95;;;;;;;5.84;91.53;98591.72;5006502;28;20037;-67
2022/03/12 06:04:26;;;;;;;50.42;18.88;;;;;;;5.90;91.43;98592.59;5006485;28;20026;-67
2022/03/12 06:06:53;;;;;;;41.78;18.50;;;;;;;5.85;90.51;98583.00;5006378;28;20033;-67
2022/03/12 06:09:18;;;;;;;47.33;18.30;;;;;;;5.71;90.89;98595.19;5006596;28;20310;-67
2022/03/12 06:11:44;;;;;;;44.78;17.85;;;;;;;5.73;90.75;98593.47;5006248;28;20098;-67
2022/03/12 06:14:13;;;;;;;41.72;18.27;;;;;;;5.79;90.89;98588.25;5006270;28;20054;-67
2022/03/12 06:16:38;;;;;;;32.17;15.90;;;;;;;5.92;90.66;98606.50;5004770;28;20206;-67
2022/03/12 06:19:03;;;;;;;42.58;15.55;;;;;;;5.95;90.27;98598.66;5004965;28;20022;-67
2022/03/12 06:21:29;;;;;;;38.55;16.02;;;;;;;5.95;90.62;98590.84;5005497;28;20352;-67
2022/03/12 06:23:56;;;;;;;34.60;16.08;;;;;;;5.98;91.06;98587.38;5005070;28;20026;-67
2022/03/12 06:26:22;;;;;;;46.83;15.98;;;;;;;5.98;90.64;98584.75;5005004;28;20030;-67
2022/03/12 06:28:48;;;;;;;36.20;16.80;;;;;;;5.97;91.36;98596.94;5004681;28;20341;-67
2022/03/12 06:31:14;;;;;;;35.95;16.45;;;;;;;6.03;91.39;98596.03;5004860;28;20019;-67
2022/03/12 06:33:41;;;;;;;37.97;15.43;;;;;;;6.10;89.96;98596.03;5004877;28;20249;-67
2022/03/12 06:36:08;;;;;;;40.10;15.20;;;;;;;6.22;88.57;98595.13;5004850;28;20018;-66
2022/03/12 06:38:37;;;;;;;42.83;15.95;;;;;;;6.27;87.85;98596.00;5004963;28;20421;-66
2022/03/12 06:41:02;;;;;;;25.05;12.25;;;;;;;6.34;87.17;98589.88;5004244;28;20022;-67
2022/03/12 06:43:28;;;;;;;34.55;15.13;;;;;;;6.28;87.49;98595.13;5004434;28;20028;-67
2022/03/12 06:45:58;;;;;;;35.60;15.93;;;;;;;6.37;88.85;98600.31;5004426;28;20265;-66
2022/03/12 06:48:25;;;;;;;38.38;16.27;;;;;;;6.29;89.14;98602.94;5004594;28;20022;-66
2022/03/12 06:50:51;;;;;;;34.03;14.63;;;;;;;6.41;88.01;98602.03;5004614;28;20022;-66
2022/03/12 06:53:17;;;;;;;36.88;14.45;;;;;;;6.52;86.25;98605.50;5004270;28;20037;-66
2022/03/12 06:55:43;;;;;;;28.17;12.88;;;;;;;6.98;86.27;98601.78;5003788;28;20026;-66
2022/03/12 06:58:09;;;;;;;30.50;12.90;;;;;;;7.60;84.28;98599.59;5004232;28;20031;-66
2022/03/12 07:00:34;;;;;;;31.38;13.93;;;;;;;7.80;84.24;98592.44;5004015;28;20068;-66
2022/03/12 07:03:00;;;;;;;29.15;12.13;;;;;;;8.29;81.40;98603.34;5004106;28;20046;-66
2022/03/12 07:05:26;;;;;;;23.13;11.35;;;;;;;8.91;80.52;98599.91;5004110;28;20030;-66
2022/03/12 07:07:52;;;;;;;21.05;11.05;;;;;;;9.16;75.29;98594.31;5003596;28;20023;-66
2022/03/12 07:10:18;;;;;;;22.00;11.23;;;;;;;9.35;77.46;98587.03;5003981;28;20033;-66
2022/03/12 07:12:45;;;;;;;26.48;10.43;;;;;;;9.73;77.43;98595.19;5004331;28;20022;-66
2022/03/12 07:15:12;;;;;;;21.20;10.57;;;;;;;9.97;75.13;98600.03;5004049;28;20097;-67
2022/03/12 07:17:38;;;;;;;18.92;10.20;;;;;;;9.85;72.85;98594.97;5004190;28;20035;-66
2022/03/12 07:20:05;;;;;;;15.05;8.07;;;;;;;10.09;71.34;98594.56;5004163;28;20333;-66
2022/03/12 07:22:31;;;;;;;22.25;9.13;;;;;;;10.15;67.85;98592.69;5003753;28;20022;-66
2022/03/12 07:24:57;;;;;;;16.30;8.77;;;;;;;10.42;68.47;98591.31;5003712;28;20288;-66
2022/03/12 07:27:24;;;;;;;17.45;8.93;;;;;;;10.44;65.58;98597.44;5003711;28;20045;-66
2022/03/12 07:29:50;;;;;;;13.80;7.15;;;;;;;10.62;65.50;98589.16;5003603;28;20021;-66
2022/03/12 07:32:16;;;;;;;17.15;8.55;;;;;;;10.62;64.36;98591.78;5003582;28;20022;-66
2022/03/12 07:34:42;;;;;;;15.90;7.82;;;;;;;10.61;62.85;98590.06;5003286;28;20026;-66
2022/03/12 07:37:09;;;;;;;15.20;7.25;;;;;;;10.61;61.59;98590.06;5003365;28;20010;-66
2022/03/12 07:39:35;;;;;;;14.85;7.40;;;;;;;10.65;64.64;98589.09;5003597;28;20022;-66
2022/03/12 07:42:03;;;;;;;14.93;7.88;;;;;;;10.57;65.22;98588.41;5003483;28;20333;-66
2022/03/12 07:44:29;;;;;;;11.80;6.50;;;;;;;10.62;63.53;98597.03;5003379;28;20018;-66
2022/03/12 07:46:54;;;;;;;11.07;6.50;;;;;;;10.83;62.90;98591.34;5003010;28;20042;-66
2022/03/12 07:49:20;;;;;;;16.00;7.32;;;;;;;11.32;62.13;98594.63;5003314;28;20364;-66
2022/03/12 07:51:47;;;;;;;16.98;7.13;;;;;;;12.02;59.97;98597.31;5003267;28;20310;-66
2022/03/12 07:54:14;;;;;;;13.88;6.20;;;;;;;12.69;57.45;98601.69;5003637;28;20022;-66
2022/03/12 07:56:40;;;;;;;10.95;6.28;;;;;;;12.63;55.12;98607.13;5003412;28;20022;-66
2022/03/12 07:59:06;;;;;;;10.52;6.35;;;;;;;12.93;56.65;98601.81;5003269;28;20093;-66
2022/03/12 08:01:31;;;;;;;9.65;5.53;;;;;;;13.38;56.80;98598.75;5002970;28;20022;-66
2022/03/12 08:03:58;;;;;;;10.80;6.07;;;;;;;13.53;53.79;98603.53;5003123;28;20034;-66
2022/03/12 08:06:24;;;;;;;14.18;7.43;;;;;;;13.53;51.06;98611.47;5003210;28;20069;-66
2022/03/12 08:08:49;;;;;;;15.95;8.20;;;;;;;13.21;50.58;98606.31;5003150;28;20018;-66
2022/03/12 08:11:29;;;;;;;16.98;8.52;;;;;;;12.39;51.78;98608.66;5003165;28;20022;-66
2022/03/12 08:14:01;;;;;;;15.32;7.85;;;;;;;12.86;51.38;98605.56;4995408;28;20028;-66
2022/03/12 08:16:28;;;;;;;13.15;7.47;;;;;;;13.09;50.35;98607.56;5003223;28;20023;-67
2022/03/12 08:18:54;;;;;;;16.17;7.78;;;;;;;13.38;49.81;98610.16;5003298;28;20049;-67
2022/03/12 08:21:20;;;;;;;14.15;8.27;;;;;;;13.50;48.68;98608.94;5002928;28;20333;-67
2022/03/12 08:23:47;;;;;;;15.07;8.63;;;;;;;12.57;51.17;98602.84;5003034;28;20029;-67
2022/03/12 08:26:13;;;;;;;17.15;8.07;;;;;;;12.49;51.53;98603.97;5002762;28;20356;-67
2022/03/12 08:28:38;;;;;;;19.50;9.55;;;;;;;12.31;51.72;98605.34;5003051;28;20042;-67
2022/03/12 08:31:05;;;;;;;15.02;8.55;;;;;;;12.39;52.57;98613.06;5002823;28;20229;-67
2022/03/12 08:33:31;;;;;;;18.85;9.15;;;;;;;12.44;52.01;98612.03;5002966;28;20029;-67
2022/03/12 08:35:57;;;;;;;18.67;9.70;;;;;;;12.58;51.73;98612.53;5003267;28;20014;-67
2022/03/12 08:38:24;;;;;;;16.55;9.98;;;;;;;13.01;50.33;98617.50;5002898;28;20022;-67
2022/03/12 08:40:49;;;;;;;19.13;9.40;;;;;;;12.99;48.88;98614.91;5002568;28;20214;-67
2022/03/12 08:43:15;;;;;;;20.83;11.07;;;;;;;13.20;47.99;98609.88;5002895;28;20093;-67
2022/03/12 08:45:40;;;;;;;18.48;10.77;;;;;;;13.45;47.86;98610.88;5003101;28;20022;-67
2022/03/12 08:48:06;;;;;;;25.95;11.68;;;;;;;14.10;46.24;98617.53;5003780;28;20057;-67
2022/03/12 08:50:32;;;;;;;21.58;11.48;;;;;;;13.81;46.95;98617.63;5006936;28;20018;-67
2022/03/12 08:52:58;;;;;;;21.60;10.82;;;;;;;13.63;47.17;98608.50;5006514;28;20313;-67
2022/03/12 08:55:24;;;;;;;20.92;11.57;;;;;;;13.52;47.37;98607.09;5006869;28;20076;-67
2022/03/12 08:57:51;;;;;;;20.02;10.30;;;;;;;14.07;49.51;98607.03;5006757;28;20019;-67
2022/03/12 09:00:18;;;;;;;21.83;10.50;;;;;;;14.38;47.82;98607.75;5006762;28;20321;-67
2022/03/12 09:02:44;;;;;;;24.48;10.38;;;;;;;14.77;46.38;98606.34;5006362;28;20022;-67
2022/03/12 09:05:12;;;;;;;23.67;11.30;;;;;;;14.86;45.33;98600.69;5005875;28;20049;-67
2022/03/12 09:07:38;;;;;;;19.58;10.68;;;;;;;15.62;44.69;98598.66;5006272;28;20022;-67
2022/03/12 09:10:05;;;;;;;19.23;10.48;;;;;;;15.58;44.40;98595.28;5006302;28;20022;-67
2022/03/12 09:12:30;;;;;;;20.85;10.43;;;;;;;15.55;44.92;98595.41;5006143;28;20022;-67
2022/03/12 09:14:56;;;;;;;23.85;10.75;;;;;;;15.36;44.52;98591.69;5006011;28;20073;-67
2022/03/12 09:17:22;;;;;;;18.90;9.73;;;;;;;15.49;43.54;98592.09;5006077;28;20022;-67
2022/03/12 09:19:47;;;;;;;22.52;10.35;;;;;;;15.20;45.10;98601.19;5006024;28;20029;-67
2022/03/12 09:22:13;;;;;;;17.33;8.95;;;;;;;15.79;44.94;98604.16;5006312;28;20052;-67
2022/03/12 09:24:40;;;;;;;17.17;9.30;;;;;;;15.80;46.72;98614.72;5005891;28;20018;-67
2022/03/12 09:27:06;;;;;;;14.98;7.93;;;;;;;16.05;45.61;98615.44;5005846;28;20030;-67
2022/03/12 09:29:32;;;;;;;16.95;8.73;;;;;;;16.10;44.52;98624.06;5005895;28;20038;-67
2022/03/12 09:31:59;;;;;;;15.60;8.38;;;;;;;16.15;44.39;98610.59;5005264;28;20018;-67
2022/03/12 09:34:24;;;;;;;16.35;8.68;;;;;;;15.62;44.49;98607.47;5005893;28;20329;-67
2022/03/12 09:36:50;;;;;;;15.30;7.72;;;;;;;15.79;45.34;98607.66;5006088;28;20011;-67
2022/03/12 09:39:15;;;;;;;14.70;8.65;;;;;;;16.45;45.84;98610.19;5006063;28;20195;-67
2022/03/12 09:41:41;;;;;;;16.75;8.48;;;;;;;16.63;44.28;98609.41;5006725;28;20241;-67
2022/03/12 09:44:07;;;;;;;15.77;7.82;;;;;;;16.67;44.22;98611.00;5005137;28;20022;-67
2022/03/12 09:46:34;;;;;;;18.05;8.30;;;;;;;16.68;44.41;98609.22;5005980;28;20037;-67
2022/03/12 09:48:59;;;;;;;16.13;7.50;;;;;;;16.60;44.93;98604.22;5006103;28;20023;-67
2022/03/12 09:51:28;;;;;;;16.38;7.53;;;;;;;16.69;45.40;98602.94;5005819;28;20030;-67
2022/03/12 09:53:55;;;;;;;13.23;7.28;;;;;;;16.31;44.78;98601.94;5005801;28;20026;-67
2022/03/12 09:56:20;;;;;;;15.00;8.40;;;;;;;16.53;45.45;98602.78;5005550;28;20026;-67
2022/03/12 09:58:46;;;;;;;12.63;7.10;;;;;;;16.04;46.40;98597.78;5004885;28;20368;-67
2022/03/12 10:01:11;;;;;;;13.93;6.70;;;;;;;16.60;46.65;98598.91;5005946;28;20045;-67
2022/03/12 10:03:41;;;;;;;12.50;6.80;;;;;;;16.82;45.89;98594.38;5005598;28;20050;-67
2022/03/12 10:06:07;;;;;;;11.82;7.18;;;;;;;16.48;45.19;98599.44;5005707;28;20348;-67
2022/03/12 10:08:33;;;;;;;13.90;6.72;;;;;;;16.20;46.21;98596.19;5005506;28;20022;-67
2022/03/12 10:10:59;;;;;;;13.40;7.68;;;;;;;15.84;45.24;98595.06;5004997;28;20317;-67
2022/03/12 10:13:24;;;;;;;16.20;6.85;;;;;;;16.16;47.21;98597.25;5005368;28;20220;-67
2022/03/12 10:15:49;;;;;;;9.38;5.72;;;;;;;16.56;47.17;98597.31;5005226;28;20041;-67
2022/03/12 10:18:15;;;;;;;11.73;5.85;;;;;;;16.89;45.86;98595.81;5005313;28;20022;-67
2022/03/12 10:20:40;;;;;;;10.57;5.07;;;;;;;16.46;47.13;98590.66;5005269;28;20345;-67
2022/03/12 10:23:07;;;;;;;8.60;4.95;;;;;;;16.46;46.78;98595.97;5005262;28;20022;-67
2022/03/12 10:25:33;;;;;;;10.15;4.43;;;;;;;15.91;46.68;98596.56;5004913;28;20270;-67
2022/03/12 10:27:58;;;;;;;29.75;12.45;;;;;;;16.00;48.89;98612.09;5005377;28;20081;-67
2022/03/12 10:30:25;;;;;;;12.43;6.25;;;;;;;15.82;48.69;98612.84;5005086;28;20076;-67
2022/03/12 10:32:51;;;;;;;8.68;5.18;;;;;;;15.99;48.58;98621.00;5004731;28;20022;-67
2022/03/12 10:35:19;;;;;;;8.32;4.25;;;;;;;15.80;49.08;98619.16;5005001;28;20052;-67
2022/03/12 10:37:47;;;;;;;38.00;16.25;;;;;;;16.13;48.73;98623.06;5004519;28;20022;-67
2022/03/12 10:40:19;;;;;;;12.80;7.22;;;;;;;16.36;48.21;98630.97;5004988;28;20253;-67
2022/03/12 10:42:59;;;;;;;7.13;4.15;;;;;;;16.23;47.55;98641.22;5004844;28;20026;-67
2022/03/12 10:45:37;;;;;;;10.25;4.68;;;;;;;16.32;48.28;98640.84;5005119;28;20022;-67
2022/03/12 10:48:03;;;;;;;17.02;9.88;;;;;;;16.50;47.54;98639.22;5004934;28;20054;-67
2022/03/12 10:50:39;;;;;;;15.07;10.40;;;;;;;16.50;48.86;98642.75;5004365;28;20033;-65
2022/03/12 10:53:06;;;;;;;18.15;11.77;;;;;;;16.60;47.47;98630.81;5004948;28;20030;-66
2022/03/12 10:55:34;;;;;;;13.30;8.85;;;;;;;16.67;47.82;98640.22;5004449;28;20340;-67
2022/03/12 10:58:13;;;;;;;18.02;5.75;;;;;;;16.16;47.48;98639.75;5004668;28;20032;-67
2022/03/12 11:00:50;;;;;;;11.40;6.25;;;;;;;16.02;45.69;98642.13;5005670;28;20029;-67
2022/03/12 11:03:22;;;;;;;17.42;8.05;;;;;;;15.65;47.24;98641.84;5005458;28;20369;-67
2022/03/12 11:05:49;;;;;;;12.32;6.85;;;;;;;15.41;46.59;98642.78;5005334;28;20344;-67
2022/03/12 11:08:28;;;;;;;14.32;7.18;;;;;;;15.20;46.47;98638.28;5005004;28;20093;-67
2022/03/12 11:10:59;;;;;;;14.73;7.85;;;;;;;15.01;46.94;98647.84;5004465;28;20047;-67
2022/03/12 11:13:38;;;;;;;12.30;6.65;;;;;;;15.05;47.64;98649.47;5005064;28;20034;-67
2022/03/12 11:16:12;;;;;;;17.65;6.55;;;;;;;14.73;48.89;98649.75;5005608;28;20054;-67
2022/03/12 11:19:01;;;;;;;16.25;6.60;;;;;;;14.63;48.14;98651.00;5005181;28;20037;-67
2022/03/12 11:21:37;;;;;;;12.05;6.53;;;;;;;14.93;48.51;98649.91;4992962;28;20271;-67
2022/03/12 11:24:28;;;;;;;12.02;5.90;;;;;;;14.73;47.71;98645.34;5005322;28;20340;-67